createdAt,value
2019-04-30T00:01:58.476Z,101447.20
2019-04-30T00:06:59.740Z,101438.50
2019-04-30T00:12:03.182Z,101439.35
2019-04-30T00:17:10.678Z,101435.91
2019-04-30T00:22:11.868Z,101437.64
2019-04-30T00:27:15.270Z,101430.66
2019-04-30T00:32:18.677Z,101424.60
2019-04-30T00:37:22.077Z,101428.05
2019-04-30T00:42:28.830Z,101438.50
2019-04-30T00:47:30.636Z,101432.43
2019-04-30T00:52:36.922Z,101434.14
2019-04-30T00:57:43.747Z,101431.97
2019-04-30T01:02:49.866Z,101435.04
2019-04-30T01:07:55.010Z,101429.80
2019-04-30T01:13:01.833Z,101431.53
2019-04-30T01:18:03.800Z,101421.97
2019-04-30T01:23:11.090Z,101416.32
2019-04-30T01:28:16.485Z,101409.81
2019-04-30T01:33:19.174Z,101408.49
2019-04-30T01:38:22.720Z,101399.37
2019-04-30T01:43:31.436Z,101398.50
2019-04-30T01:48:31.274Z,101401.12
2019-04-30T01:53:35.645Z,101403.72
2019-04-30T01:58:40.693Z,101403.73
2019-04-30T02:03:44.097Z,101408.08
2019-04-30T02:08:49.273Z,101403.73
2019-04-30T02:13:52.810Z,101402.41
2019-04-30T02:18:56.223Z,101401.98
2019-04-30T02:23:59.626Z,101396.75
2019-04-30T02:29:03.036Z,101397.62
2019-04-30T02:34:10.183Z,101402.83
2019-04-30T02:39:13.313Z,101401.10
2019-04-30T02:44:19.584Z,101395.44
2019-04-30T02:49:23.805Z,101396.31
2019-04-30T02:54:29.927Z,101388.92
2019-04-30T02:59:33.355Z,101385.45
2019-04-30T03:04:39.365Z,101389.80
2019-04-30T03:09:41.925Z,101387.19
2019-04-30T03:14:45.465Z,101386.30
2019-04-30T03:19:50.542Z,101389.78
2019-04-30T03:24:54.004Z,101392.38
2019-04-30T03:29:59.959Z,101393.22
2019-04-30T03:35:03.386Z,101392.69
2019-04-30T03:40:13.258Z,101409.21
2019-04-30T03:45:15.896Z,101400.53
2019-04-30T03:50:19.950Z,101397.06
2019-04-30T03:55:24.954Z,101400.15
2019-04-30T04:00:46.792Z,101404.92
2019-04-30T04:05:51.893Z,101407.52
2019-04-30T04:10:56.974Z,101411.88
2019-04-30T04:16:00.521Z,101410.13
2019-04-30T04:21:11.692Z,101410.14
2019-04-30T04:26:09.538Z,101419.25
2019-04-30T04:31:14.370Z,101418.33
2019-04-30T04:36:19.842Z,101417.00
2019-04-30T04:41:22.931Z,101413.92
2019-04-30T04:46:26.387Z,101413.48
2019-04-30T04:51:38.164Z,101419.59
2019-04-30T04:56:34.959Z,101420.37
2019-04-30T05:01:38.833Z,101425.64
2019-04-30T05:06:42.382Z,101424.30
2019-04-30T05:11:45.782Z,101426.04
2019-04-30T05:16:49.210Z,101418.72
2019-04-30T05:21:52.657Z,101427.93
2019-04-30T05:26:56.089Z,101435.27
2019-04-30T05:31:59.499Z,101433.14
2019-04-30T05:37:02.915Z,101430.98
2019-04-30T05:42:06.471Z,101432.30
2019-04-30T05:47:09.886Z,101430.16
2019-04-30T05:52:13.302Z,101437.94
2019-04-30T05:57:16.717Z,101442.75
2019-04-30T06:02:20.137Z,101448.91
2019-04-30T06:07:23.553Z,101445.86
2019-04-30T06:12:31.414Z,101446.73
2019-04-30T06:17:36.475Z,101455.88
2019-04-30T06:22:40.632Z,101459.36
2019-04-30T06:27:44.421Z,101467.63
2019-04-30T06:32:49.627Z,101468.08
2019-04-30T06:37:53.163Z,101469.81
2019-04-30T06:43:00.393Z,101472.42
2019-04-30T06:48:04.342Z,101468.93
2019-04-30T06:53:09.292Z,101474.56
2019-04-30T06:58:15.587Z,101482.78
2019-04-30T07:03:19.170Z,101483.64
2019-04-30T07:08:42.483Z,101479.75
2019-04-30T07:13:45.996Z,101474.59
2019-04-30T07:18:49.464Z,101474.98
2019-04-30T07:23:53.039Z,101477.58
2019-04-30T07:28:56.458Z,101468.47
2019-04-30T07:33:59.949Z,101469.38
2019-04-30T07:39:05.832Z,101475.89
2019-04-30T07:44:10.990Z,101476.73
2019-04-30T07:49:14.486Z,101476.65
2019-04-30T07:54:18.981Z,101481.81
2019-04-30T07:59:22.858Z,101478.31
2019-04-30T08:04:29.258Z,101479.59
2019-04-30T08:09:39.072Z,101483.09
2019-04-30T08:14:39.097Z,101490.63
2019-04-30T08:19:42.620Z,101487.03
2019-04-30T08:24:46.102Z,101485.16
2019-04-30T08:29:50.142Z,101486.67
2019-04-30T08:34:53.577Z,101487.18
2019-04-30T08:39:57.076Z,101485.67
2019-04-30T08:45:00.487Z,101493.30
2019-04-30T08:50:05.365Z,101488.00
2019-04-30T08:55:16.237Z,101494.66
2019-04-30T09:00:15.125Z,101505.88
2019-04-30T09:05:20.584Z,101494.54
2019-04-30T09:10:24.030Z,101487.38
2019-04-30T09:15:29.040Z,101476.60
2019-04-30T09:20:32.634Z,101479.72
2019-04-30T09:25:36.396Z,101475.47
2019-04-30T09:30:39.799Z,101483.27
2019-04-30T09:35:43.411Z,101488.44
2019-04-30T09:40:46.940Z,101490.84
2019-04-30T09:45:50.371Z,101491.34
2019-04-30T09:50:54.088Z,101485.45
2019-04-30T09:55:59.554Z,101473.05
2019-04-30T10:01:02.907Z,101465.39
2019-04-30T10:06:06.403Z,101467.70
2019-04-30T10:11:20.302Z,101459.52
2019-04-30T10:16:40.374Z,101452.66
2019-04-30T10:21:44.107Z,101453.58
2019-04-30T10:26:47.606Z,101446.50
2019-04-30T10:31:51.503Z,101439.25
2019-04-30T10:36:54.933Z,101439.45
2019-04-30T10:41:58.404Z,101426.30
2019-04-30T10:47:01.869Z,101419.70
2019-04-30T10:52:05.406Z,101421.96
2019-04-30T10:57:09.180Z,101422.16
2019-04-30T11:02:12.704Z,101408.95
2019-04-30T11:07:16.257Z,101407.12
2019-04-30T11:12:19.843Z,101407.94
2019-04-30T11:17:23.567Z,101400.25
2019-04-30T11:22:27.317Z,101397.33
2019-04-30T11:27:31.494Z,101382.70
2019-04-30T11:32:35.517Z,101382.70
2019-04-30T11:37:39.073Z,101381.40
2019-04-30T11:42:42.571Z,101375.92
2019-04-30T11:47:53.270Z,101377.82
2019-04-30T11:52:51.139Z,101374.63
2019-04-30T11:57:54.607Z,101366.90
2019-04-30T12:02:59.351Z,101348.69
2019-04-30T12:08:04.513Z,101362.47
2019-04-30T12:13:09.666Z,101347.61
2019-04-30T12:18:13.047Z,101333.94
2019-04-30T12:23:16.477Z,101332.61
2019-04-30T12:28:19.917Z,101327.71
2019-04-30T12:33:23.318Z,101325.95
2019-04-30T12:38:26.742Z,101313.68
2019-04-30T12:43:30.155Z,101307.61
2019-04-30T12:48:52.676Z,101312.73
2019-04-30T12:54:00.546Z,101303.91
2019-04-30T12:59:03.949Z,101300.32
2019-04-30T13:04:09.645Z,101302.66
2019-04-30T13:09:13.120Z,101290.27
2019-04-30T13:14:19.548Z,101283.31
2019-04-30T13:19:22.248Z,101281.41
2019-04-30T13:24:25.748Z,101268.53
2019-04-30T13:29:31.737Z,101266.02
2019-04-30T13:34:51.596Z,101253.10
2019-04-30T13:39:56.705Z,101244.48
2019-04-30T13:45:00.095Z,101234.55
2019-04-30T13:50:04.834Z,101241.41
2019-04-30T13:55:10.751Z,101229.23
2019-04-30T14:00:22.121Z,101216.53
2019-04-30T14:05:25.753Z,101223.59
2019-04-30T14:10:30.893Z,101229.91
2019-04-30T14:15:34.381Z,101215.03
2019-04-30T14:20:37.968Z,101219.55
2019-04-30T14:25:41.362Z,101215.12
2019-04-30T14:30:44.861Z,101204.08
2019-04-30T14:35:49.762Z,101205.95
2019-04-30T14:40:53.789Z,101204.36
2019-04-30T14:46:15.555Z,101195.86
2019-04-30T14:51:19.193Z,101202.57
2019-04-30T14:56:26.967Z,101191.64
2019-04-30T15:01:32.036Z,101188.02
2019-04-30T15:06:35.457Z,101177.05
2019-04-30T15:11:38.967Z,101174.23
2019-04-30T15:16:42.371Z,101168.14
2019-04-30T15:21:45.843Z,101167.76
2019-04-30T15:26:57.687Z,101158.27
2019-04-30T15:31:55.091Z,101151.59
2019-04-30T15:36:59.137Z,101153.08
2019-04-30T15:42:02.843Z,101145.65
2019-04-30T15:47:06.634Z,101143.50
2019-04-30T15:52:11.074Z,101149.37
2019-04-30T15:57:14.528Z,101140.52
2019-04-30T16:02:25.418Z,101136.83
2019-04-30T16:07:29.541Z,101141.05
2019-04-30T16:12:52.072Z,101140.48
2019-04-30T16:17:59.822Z,101135.19
2019-04-30T16:23:03.324Z,101138.91
2019-04-30T16:28:08.546Z,101138.91
2019-04-30T16:33:12.657Z,101130.23
2019-04-30T16:38:16.050Z,101128.14
2019-04-30T16:43:20.333Z,101128.14
2019-04-30T16:48:23.896Z,101127.64
2019-04-30T16:53:27.300Z,101139.18
2019-04-30T16:58:32.342Z,101114.28
2019-04-30T17:03:38.809Z,101114.28
2019-04-30T17:08:49.329Z,101126.60
2019-04-30T17:13:53.797Z,101127.03
2019-04-30T17:18:59.081Z,101130.42
2019-04-30T17:24:02.539Z,101127.17
2019-04-30T17:29:06.006Z,101132.23
2019-04-30T17:34:09.414Z,101129.11
2019-04-30T17:39:14.543Z,101123.05
2019-04-30T17:44:18.696Z,101127.84
2019-04-30T17:49:22.154Z,101124.54
2019-04-30T17:54:25.653Z,101129.13
2019-04-30T17:59:29.072Z,101135.14
2019-04-30T18:04:32.757Z,101127.94
2019-04-30T18:09:36.188Z,101132.13
2019-04-30T18:14:39.696Z,101139.06
2019-04-30T18:19:44.751Z,101134.29
2019-04-30T18:24:49.875Z,101141.34
2019-04-30T18:29:53.306Z,101137.64
2019-04-30T18:34:56.735Z,101133.88
2019-04-30T18:40:00.245Z,101134.97
2019-04-30T18:45:03.809Z,101138.98
2019-04-30T18:50:09.323Z,101136.55
2019-04-30T18:55:13.106Z,101140.78
2019-04-30T19:00:19.759Z,101142.57
2019-04-30T19:05:25.143Z,101145.50
2019-04-30T19:10:46.327Z,101148.39
2019-04-30T19:16:18.173Z,101149.60
2019-04-30T19:21:00.547Z,101153.69
2019-04-30T19:26:04.121Z,101159.34
2019-04-30T19:31:09.176Z,101157.85
2019-04-30T19:36:13.534Z,101155.41
2019-04-30T19:41:18.577Z,101159.77
2019-04-30T19:46:22.093Z,101155.22
2019-04-30T19:51:25.530Z,101159.57
2019-04-30T19:56:30.309Z,101158.78
2019-04-30T20:01:34.103Z,101163.73
2019-04-30T20:06:38.636Z,101164.62
2019-04-30T20:11:42.638Z,101160.04
2019-04-30T20:16:46.112Z,101159.42
2019-04-30T20:21:53.621Z,101161.02
2019-04-30T20:27:05.811Z,101160.93
2019-04-30T20:31:59.901Z,101162.94
2019-04-30T20:37:03.359Z,101164.82
2019-04-30T20:42:06.772Z,101159.34
2019-04-30T20:47:10.213Z,101158.81
2019-04-30T20:52:13.621Z,101159.94
2019-04-30T20:57:17.042Z,101157.41
2019-04-30T21:02:20.610Z,101159.13
2019-04-30T21:07:23.968Z,101162.23
2019-04-30T21:12:28.825Z,101157.50
2019-04-30T21:17:32.382Z,101149.37
2019-04-30T21:22:35.799Z,101149.46
2019-04-30T21:27:40.120Z,101149.41
2019-04-30T21:32:59.240Z,101147.14
2019-04-30T21:38:02.787Z,101145.39
2019-04-30T21:43:06.212Z,101153.33
2019-04-30T21:48:09.638Z,101148.80
2019-04-30T21:53:13.054Z,101151.52
2019-04-30T21:58:16.476Z,101147.53
2019-04-30T22:03:19.886Z,101145.08
2019-04-30T22:08:23.345Z,101145.19
2019-04-30T22:13:26.746Z,101137.28
2019-04-30T22:18:30.175Z,101133.36
2019-04-30T22:23:33.615Z,101126.94
2019-04-30T22:28:37.052Z,101136.22
2019-04-30T22:33:40.530Z,101141.58
2019-04-30T22:38:45.591Z,101142.47
2019-04-30T22:43:50.169Z,101133.59
2019-04-30T22:48:53.610Z,101123.73
2019-04-30T22:53:57.028Z,101132.91
2019-04-30T22:59:00.526Z,101138.99
2019-04-30T23:04:05.641Z,101141.77
2019-04-30T23:09:11.476Z,101132.72
2019-04-30T23:14:14.955Z,101139.16
2019-04-30T23:19:18.402Z,101143.48
2019-04-30T23:24:21.840Z,101135.24
2019-04-30T23:29:25.347Z,101128.74
2019-04-30T23:34:28.781Z,101120.09
2019-04-30T23:39:32.177Z,101116.49
2019-04-30T23:44:35.652Z,101111.31
2019-04-30T23:49:39.079Z,101113.56
2019-04-30T23:54:42.561Z,101105.31
2019-04-30T23:59:45.981Z,101096.30
